Terminal Aerodrome Forecast
Issued by NWS Newport/Morehead City, NC

Home | Current Version | Previous Version | Graphics & Text | Print | Product List | Glossary On
Versions: 1 2 3 4 5 6 7 8 9 10 11 12 13 14 15 16 17 18 19 20 21 22
000
FTUS42 KMHX 221141 AAB
TAFEWN
TAF AMD
KEWN 221141Z 2212/2312 23006KT 6SM SHRA OVC015
     FM221800 17006KT P6SM VCSH BKN015
     FM222100 17006KT P6SM BKN015
     FM230000 15005KT 3SM SHRA VCTS OVC020CB
     FM230600 19010KT P6SM VCSH OVC025
     FM230800 20010KT P6SM BKN040=

USA.gov is the U.S. government's official web portal to all federal, state and local government web resources and services.